Aviation Digital Data Service (ADDS)

Output produced by METARs form (0258 UTC 23 April 2021)
found at http://aviationweather.gov/metar/data/
 
LIRZ 230250Z AUTO 02008KT 9999 SCT075/// 08/07 Q1019
LIRZ 230220Z AUTO 02009KT 9999 NCD 08/07 Q1018
TAF LIRZ 222300Z 2300/2324 VRB05KT 9999 FEW040 
     BECMG 2307/2309 07010KT